27.8F
Current conditions from King Hill
Updated every 5 minutes
 
  Tuesday January 28, 2020

Observations for Westford

Westford

44° 37' 38"N, 73° 02' 29"W, Elevation 850 ft.
Eastern Time

Hourly observations for the last 72 hours

Date Time Temperature (°F) Humi-
dity

(%)
Wind
(mph)
Pressure Rain (in)
Air Dew 6 Hour 1 Hr 3 Hr 6 Hr Day
Alt
(in)
Sea
Level

(mb)
Max Min
28 06:00 27.9 26.7 95 WNW 3 G 11 29.71 1006.2 0.00
28 05:00 28.1 26.9 95 W 6 G 10 29.70 1005.9 0.00
28 04:00 28.3 27.1 95 WNW 4 G 7 29.69 1005.4 0.00
28 03:00 28.5 27.5 96 N 0 G 10 29.68 1005.3 0.00
28 02:00 29.0 28.0 96 WNW 3 G 9 29.68 1005.0 0.00
28 01:00 29.1 28.1 31.7 29.1 96 W 6 G 10 29.66 1004.5 0.00
28 00:00 29.6 28.6 96 WNW 1 G 8 29.66 1004.4 0.00
27 23:00 29.8 28.8 96 NNW 0 G 5 29.64 1003.9 0.00
27 22:00 30.2 29.2 96 W 3 G 16 29.64 1003.6 0.00
27 21:00 30.8 29.3 94 WNW 3 G 14 29.64 1003.6 0.00
27 20:00 31.3 29.5 93 W 2 G 9 29.63 1003.4 0.00
27 19:00 31.6 29.8 33.1 31.6 93 W 5 G 10 29.62 1002.9 0.00
27 18:00 31.7 30.2 94 W 5 G 11 29.60 1002.5 0.00
27 17:00 32.2 30.1 92 W 5 G 13 29.59 1002.0 0.00
27 16:00 32.3 31.0 95 W 3 G 7 29.57 1001.5 0.00
27 15:00 32.5 31.2 95 W 3 G 7 29.55 1000.8 0.00
27 14:00 32.9 31.4 94 WSW 5 G 9 29.54 1000.3 0.00
27 13:00 33.0 31.5 33.6 31.5 94 W 2 G 10 29.54 1000.5 0.00
27 12:00 33.2 31.7 94 W 3 G 7 29.55 1000.6 0.00
27 11:00 33.3 31.8 94 SSW 2 G 5 29.54 1000.5 0.00
27 10:00 32.8 31.5 95 SSE 2 G 7 29.53 1000.2 0.00
27 09:00 32.2 31.2 96 SSW 0 G 4 29.54 1000.3 0.00
27 08:00 31.7 30.7 96 S 0 G 4 29.54 1000.2 0.00
27 07:00 31.5 30.7 32.5 31.5 97 SSW 0 G 3 29.53 1000.0 0.00
27 06:00 31.6 30.8 97 S 2 G 4 29.52 999.9 0.00
27 05:00 31.7 30.7 96 S 2 G 4 29.53 999.9 0.00
27 04:00 31.9 30.9 96 S 2 G 4 29.53 1000.0 0.00
27 03:00 32.3 31.0 95 S 3 G 7 29.53 1000.0 0.00
27 02:00 32.1 30.8 95 S 2 G 6 29.53 1000.0 0.00
27 01:00 32.1 31.1 32.3 32.1 96 S 3 G 9 29.53 1000.0 0.00
27 00:00 32.1 31.1 96 S 5 G 13 29.55 1000.5 0.00
26 23:00 32.3 31.3 96 S 3 G 10 29.56 1001.0 0.00
26 22:00 32.1 31.3 97 S 3 G 8 29.56 1001.1 0.00
26 21:00 32.2 31.2 96 S 6 G 13 29.57 1001.4 0.00
26 20:00 32.2 31.2 96 SSW 4 G 10 29.58 1001.6 0.00
26 19:00 32.1 31.1 35.5 32.0 96 S 3 G 13 29.57 1001.4 0.00
26 18:00 32.4 31.1 95 S 4 G 10 29.56 1001.0 0.00
26 17:00 33.8 32.5 95 SSE 3 G 9 29.56 1000.9 0.00
26 16:00 34.9 33.4 94 S 3 G 10 29.56 1001.2 0.00
26 15:00 34.7 33.4 95 SSW 3 G 6 29.57 1001.3 0.00
26 14:00 34.0 32.7 95 S 2 G 10 29.57 1001.5 0.00
26 13:00 33.4 32.1 34.7 32.3 95 S 2 G 7 29.59 1002.0 0.00
26 12:00 34.4 32.9 94 S 3 G 8 29.60 1002.5 0.00
26 11:00 34.4 32.9 94 S 2 G 6 29.62 1003.1 0.00
26 10:00 33.9 32.9 96 S 5 G 8 29.63 1003.5 0.00
26 09:00 33.6 32.8 97 S 3 G 9 29.64 1003.7 0.00
26 08:00 32.7 31.9 97 S 3 G 8 29.65 1004.2 0.00
26 07:00 32.4 31.6 33.7 31.9 97 S 4 G 10 29.65 1004.0 0.00
26 06:00 32.0 31.0 96 S 3 G 8 29.65 1004.2 0.00
26 05:00 33.6 32.8 97 S 3 G 8 29.66 1004.4 0.00
26 04:00 32.5 31.7 97 W 0 G 2 29.67 1004.7 0.00
26 03:00 32.1 31.1 96 Calm 29.67 1004.7 0.00
26 02:00 32.6 31.6 96 W 0 G 2 29.67 1004.7 0.00
26 01:00 32.6 31.6 35.3 32.1 96 W 1 G 4 29.68 1005.2 0.00
26 00:00 32.2 31.2 96 Calm 29.69 1005.6 0.00
25 23:00 32.4 31.1 95 Calm 29.71 1006.2 0.00
25 22:00 32.3 31.0 95 Calm 29.74 1007.2 0.00
25 21:00 32.6 31.1 94 Calm 29.80 1009.3 0.00
25 20:00 33.7 32.2 94 S 0 G 5 29.85 1010.8 0.00
25 19:00 35.2 33.1 39.3 34.6 92 S 3 G 8 29.90 1012.4 0.00
25 18:00 36.6 33.7 89 SE 0 G 9 29.89 1012.2 0.00
25 17:00 37.0 33.2 86 S 3 G 10 29.92 1013.3 0.00
25 16:00 36.8 32.1 83 SE 4 G 15 29.95 1014.4 0.00
25 15:00 38.3 30.1 72 SSE 2 G 9 29.98 1015.1 0.00
25 14:00 39.0 30.1 70 SSE 1 G 8 30.00 1015.8 0.00
25 13:00 39.3 27.8 39.5 28.5 63 SSE 3 G 9 30.02 1016.6 0.00
25 12:00 38.4 27.7 65 SE 4 G 11 30.08 1018.7 0.00
25 11:00 37.6 27.6 67 S 2 G 18 30.13 1020.3 0.00
25 10:00 35.6 27.5 72 SE 3 G 12 30.14 1020.6 0.00
25 09:00 31.5 26.3 81 S 0 G 2 30.15 1021.2 0.00
25 08:00 29.5 25.3 84 S 0 G 3 30.18 1022.1 0.00
25 07:00 28.8 24.9 29.9 26.9 85 SE 0 G 5 30.19 1022.4 0.00

Data generated by WxSolution Version 1.9.1.7, Build 2018.11.24.


 
 
Current Radar Loop:

Copyright © WestfordWeather.net 2007-2020. All rights reserved.